Time;durP1;ratioP1;P1;durP2;ratioP2;P2;SDS_P1;SDS_P2;PMS_P1;PMS_P2;Temp;Humidity;BMP_temperature;BMP_pressure;BME280_temperature;BME280_humidity;BME280_pressure;Samples;Min_cycle;Max_cycle;Signal;HPM_P1;HPM_P2
2023/05/23 00:00:29;;;;;;;7.07;4.95;;;;;;;19.27;38.83;101292.78;5036279;28;20140;-84
2023/05/23 00:08:07;;;;;;;5.97;4.15;;;;;;;19.16;39.23;101298.69;5017160;28;20409;-83
2023/05/23 00:11:19;;;;;;;6.88;4.18;;;;;;;19.12;39.02;101289.88;4983185;28;20060;-82
2023/05/23 00:31:00;;;;;;;5.65;4.38;;;;;;;19.05;39.88;101285.25;4882010;29;20151;-84
2023/05/23 00:50:36;;;;;;;7.28;4.57;;;;;;;18.95;39.69;101306.78;4906089;29;20059;-84
2023/05/23 00:56:25;;;;;;;5.28;3.75;;;;;;;18.93;39.23;101309.72;4985228;28;20179;-85
2023/05/23 01:03:22;;;;;;;4.20;2.97;;;;;;;18.88;38.92;101326.03;4908781;29;20079;-82
2023/05/23 01:05:58;;;;;;;5.75;2.90;;;;;;;18.86;38.82;101339.22;4967811;28;20054;-82
2023/05/23 01:08:30;;;;;;;3.80;2.53;;;;;;;18.83;38.75;101332.09;5010884;28;20132;-83
2023/05/23 01:11:08;;;;;;;3.78;2.72;;;;;;;18.83;38.61;101334.00;5003697;28;20046;-82
2023/05/23 01:17:14;;;;;;;3.75;2.53;;;;;;;18.72;38.65;101324.13;5007420;28;20045;-82
2023/05/23 01:24:38;;;;;;;3.85;2.40;;;;;;;18.63;38.55;101325.22;5007640;28;20717;-83
2023/05/23 01:27:55;;;;;;;3.35;2.08;;;;;;;18.65;38.80;101320.34;5010678;28;20127;-83
2023/05/23 01:31:08;;;;;;;3.85;2.35;;;;;;;18.61;38.50;101318.97;4985170;28;20045;-82
2023/05/23 01:37:40;;;;;;;3.42;2.05;;;;;;;18.56;38.71;101324.16;4961714;28;20058;-81
2023/05/23 01:40:14;;;;;;;3.70;2.40;;;;;;;18.56;38.77;101334.38;5013080;28;20096;-82
2023/05/23 01:42:42;;;;;;;3.33;2.08;;;;;;;18.58;38.79;101324.00;5010998;28;20046;-82
2023/05/23 01:45:12;;;;;;;3.88;2.38;;;;;;;18.59;38.75;101328.50;5038850;22;20064;-80
2023/05/23 01:47:42;;;;;;;3.75;2.53;;;;;;;18.60;39.11;101335.78;5031610;28;20090;-79
2023/05/23 01:50:12;;;;;;;3.85;2.47;;;;;;;18.60;38.87;101335.78;5025947;28;20053;-80
2023/05/23 01:52:40;;;;;;;4.00;2.50;;;;;;;18.58;38.84;101330.41;5028740;28;20046;-79
2023/05/23 01:55:10;;;;;;;4.32;2.67;;;;;;;18.59;38.86;101332.16;5016580;28;20050;-79
2023/05/23 01:57:39;;;;;;;4.50;2.60;;;;;;;18.58;38.72;101322.09;5010063;28;20072;-79
2023/05/23 02:00:10;;;;;;;3.78;2.53;;;;;;;18.59;38.88;101334.06;5011007;28;20045;-79
2023/05/23 02:02:43;;;;;;;3.88;2.50;;;;;;;18.58;39.13;101332.31;5014562;28;20064;-78
2023/05/23 02:05:11;;;;;;;4.03;2.63;;;;;;;18.55;39.00;101328.00;5011358;28;20096;-78
2023/05/23 02:07:39;;;;;;;4.15;2.88;;;;;;;18.54;38.54;101330.94;5005441;28;20069;-78
2023/05/23 02:10:09;;;;;;;4.07;2.78;;;;;;;18.55;39.03;101338.22;5014764;28;20054;-79
2023/05/23 02:12:38;;;;;;;4.15;2.72;;;;;;;18.51;39.06;101333.03;5015097;28;20112;-77
2023/05/23 02:15:07;;;;;;;4.18;2.78;;;;;;;18.51;38.61;101332.16;5015091;28;20151;-78
2023/05/23 02:17:37;;;;;;;4.20;2.85;;;;;;;18.48;39.17;101332.47;5015534;28;20049;-78
2023/05/23 02:20:08;;;;;;;4.75;2.90;;;;;;;18.48;39.06;101327.81;5010611;28;20054;-79
2023/05/23 02:22:37;;;;;;;4.78;2.78;;;;;;;18.44;39.37;101329.19;5011727;28;20501;-78
2023/05/23 02:25:06;;;;;;;4.15;2.42;;;;;;;18.44;39.21;101331.97;5015474;28;20125;-77
2023/05/23 02:27:36;;;;;;;3.88;2.40;;;;;;;18.42;38.98;101339.56;5024150;28;20123;-78
2023/05/23 02:30:06;;;;;;;4.18;2.53;;;;;;;18.43;38.76;101341.31;5028776;28;20599;-78
2023/05/23 02:32:36;;;;;;;4.40;2.83;;;;;;;18.42;39.37;101338.72;5016259;28;20085;-78
2023/05/23 02:35:05;;;;;;;4.82;2.83;;;;;;;18.42;39.17;101338.72;5028632;28;20042;-78
2023/05/23 02:37:34;;;;;;;4.05;2.80;;;;;;;18.43;39.20;101344.09;5032214;28;20038;-78
2023/05/23 02:40:06;;;;;;;4.40;2.70;;;;;;;18.43;39.44;101343.22;5018280;28;20129;-79
2023/05/23 02:42:35;;;;;;;4.25;2.72;;;;;;;18.40;39.08;101346.31;5038209;28;20416;-79
2023/05/23 02:45:04;;;;;;;4.78;2.67;;;;;;;18.41;39.23;101353.59;5017561;28;20103;-77
2023/05/23 02:47:31;;;;;;;5.22;3.17;;;;;;;18.40;39.10;101344.41;5018047;28;20046;-77
2023/05/23 02:50:00;;;;;;;4.53;3.00;;;;;;;18.39;39.04;101345.47;5021717;28;20709;-77
2023/05/23 02:52:28;;;;;;;5.25;2.97;;;;;;;18.38;39.18;101351.19;5021594;28;20053;-80
2023/05/23 02:54:57;;;;;;;4.15;2.80;;;;;;;18.39;38.98;101353.78;5014058;28;20077;-79
2023/05/23 02:57:26;;;;;;;4.82;3.20;;;;;;;18.35;39.19;101352.41;5017087;28;20520;-79
2023/05/23 02:59:54;;;;;;;5.07;2.80;;;;;;;18.34;39.46;101347.91;5017595;28;20084;-78
2023/05/23 03:02:22;;;;;;;4.10;2.88;;;;;;;18.35;39.52;101355.19;5017931;28;20096;-79
2023/05/23 03:04:50;;;;;;;4.15;2.95;;;;;;;18.33;39.47;101362.78;5008063;28;20034;-78
2023/05/23 03:07:18;;;;;;;4.85;3.38;;;;;;;18.33;39.29;101353.59;5009809;28;20046;-79
2023/05/23 03:09:57;;;;;;;5.07;3.15;;;;;;;18.34;39.50;101363.66;5018172;28;20053;-79
2023/05/23 03:12:25;;;;;;;5.40;3.38;;;;;;;18.31;39.20;101361.22;5028398;28;20055;-78
2023/05/23 03:14:53;;;;;;;5.40;3.15;;;;;;;18.30;39.52;101356.75;5017796;28;20064;-80
2023/05/23 03:17:21;;;;;;;5.65;3.47;;;;;;;18.27;39.15;101357.06;5018427;28;20050;-80
2023/05/23 03:19:50;;;;;;;6.50;3.90;;;;;;;18.26;39.51;101347.91;5017699;28;20420;-81
2023/05/23 03:22:18;;;;;;;6.70;3.47;;;;;;;18.25;39.03;101364.69;5018856;28;20085;-80
2023/05/23 03:24:47;;;;;;;5.03;3.47;;;;;;;18.23;39.41;101351.00;5025865;28;20068;-80
2023/05/23 03:27:16;;;;;;;5.13;3.40;;;;;;;18.24;39.27;101363.81;5010971;28;20069;-80
2023/05/23 03:29:44;;;;;;;5.90;3.50;;;;;;;18.20;39.38;101359.69;5019283;28;20561;-80
2023/05/23 03:32:12;;;;;;;5.40;3.30;;;;;;;18.19;39.26;101351.53;5019899;28;20049;-80
2023/05/23 03:34:41;;;;;;;6.32;3.90;;;;;;;18.16;39.21;101361.03;5021289;28;20599;-80
2023/05/23 03:37:11;;;;;;;5.75;3.70;;;;;;;18.14;39.33;101363.16;5026647;28;20045;-79
2023/05/23 03:39:39;;;;;;;6.10;3.53;;;;;;;18.12;39.70;101360.53;5008600;28;20066;-80
2023/05/23 03:42:07;;;;;;;5.25;3.53;;;;;;;18.12;39.67;101362.44;5016210;28;20095;-79
2023/05/23 03:44:37;;;;;;;5.10;3.33;;;;;;;18.13;39.68;101362.28;5011788;28;20463;-79
2023/05/23 03:47:07;;;;;;;5.55;3.50;;;;;;;18.09;39.48;101369.19;5024852;28;20101;-80
2023/05/23 03:49:37;;;;;;;5.40;3.50;;;;;;;18.09;39.45;101374.72;5017018;28;20170;-78
2023/05/23 03:52:06;;;;;;;5.68;3.13;;;;;;;18.08;39.78;101377.66;5011007;28;20095;-79
2023/05/23 03:54:34;;;;;;;4.68;3.15;;;;;;;18.07;39.35;101379.56;5025655;28;20055;-79
2023/05/23 03:57:02;;;;;;;4.90;2.65;;;;;;;18.06;39.49;101383.34;5016678;28;20492;-80
2023/05/23 03:59:30;;;;;;;5.63;3.08;;;;;;;18.05;39.45;101392.72;5013487;28;20049;-80
2023/05/23 04:02:00;;;;;;;5.80;3.08;;;;;;;18.06;39.69;101388.91;5016465;28;20068;-79
2023/05/23 04:04:29;;;;;;;5.05;2.97;;;;;;;18.02;39.46;101387.53;5015829;28;20471;-79
2023/05/23 04:07:00;;;;;;;4.70;2.83;;;;;;;18.02;39.68;101392.19;5019030;28;20033;-80
2023/05/23 04:09:28;;;;;;;5.43;3.13;;;;;;;18.01;39.80;101398.75;5015172;28;20133;-79
2023/05/23 04:11:57;;;;;;;4.88;3.03;;;;;;;17.99;39.32;101398.94;5015694;28;20539;-79
2023/05/23 04:14:26;;;;;;;5.90;3.55;;;;;;;17.97;39.58;101403.78;5017423;28;20727;-80
2023/05/23 04:16:55;;;;;;;5.05;3.03;;;;;;;17.95;39.30;101403.09;5016562;28;20056;-80
2023/05/23 04:19:24;;;;;;;4.95;3.15;;;;;;;17.95;39.58;101405.88;5017731;28;20054;-80
2023/05/23 04:21:52;;;;;;;4.82;3.08;;;;;;;17.93;39.63;101401.53;5017680;28;20108;-78
2023/05/23 04:24:20;;;;;;;5.13;3.17;;;;;;;17.90;39.92;101411.03;5016727;28;20068;-79
2023/05/23 04:26:48;;;;;;;6.07;3.35;;;;;;;17.88;39.65;101399.28;5022889;28;20141;-80
2023/05/23 04:29:16;;;;;;;5.25;3.30;;;;;;;17.88;40.11;101404.81;5028398;28;20123;-79
2023/05/23 04:31:45;;;;;;;5.70;3.30;;;;;;;17.86;40.14;101415.19;5012911;28;20073;-79
2023/05/23 04:34:16;;;;;;;5.60;3.22;;;;;;;17.84;39.83;101413.59;5025162;28;20059;-78
2023/05/23 04:36:45;;;;;;;5.68;3.20;;;;;;;17.82;39.88;101411.00;5024570;28;20049;-79
2023/05/23 04:39:14;;;;;;;6.63;3.85;;;;;;;17.81;39.92;101412.06;5026760;28;20140;-81
2023/05/23 04:41:55;;;;;;;5.97;3.53;;;;;;;17.78;40.30;101420.69;5014394;28;20045;-80
2023/05/23 04:44:49;;;;;;;5.60;3.47;;;;;;;17.75;40.44;101426.56;5016012;28;20485;-79
2023/05/23 04:47:26;;;;;;;6.20;3.42;;;;;;;17.75;40.11;101423.78;5021686;28;20096;-79
2023/05/23 04:50:04;;;;;;;5.50;3.45;;;;;;;17.75;40.10;101429.31;5006322;28;20042;-80
2023/05/23 04:52:33;;;;;;;4.70;3.17;;;;;;;17.77;40.25;101422.59;5019111;28;20045;-80
2023/05/23 04:55:02;;;;;;;5.63;3.22;;;;;;;17.76;40.49;101420.00;5009140;28;20107;-80
2023/05/23 04:57:30;;;;;;;6.78;3.55;;;;;;;17.76;40.25;101425.53;5018050;28;20053;-79
2023/05/23 04:59:59;;;;;;;6.35;3.80;;;;;;;17.77;40.56;101427.25;5017803;28;20315;-79
2023/05/23 05:02:33;;;;;;;5.60;3.75;;;;;;;17.75;40.40;101427.41;5010576;28;20050;-79
2023/05/23 05:05:02;;;;;;;5.30;3.10;;;;;;;17.74;40.41;101428.47;5010614;28;20049;-80
2023/05/23 05:07:30;;;;;;;7.00;3.42;;;;;;;17.75;40.57;101432.97;5014534;28;20493;-80
2023/05/23 05:10:02;;;;;;;6.65;3.40;;;;;;;17.76;40.43;101431.06;5010642;28;20046;-80
2023/05/23 05:12:32;;;;;;;5.38;3.17;;;;;;;17.74;40.58;101430.34;5012078;28;20134;-80
2023/05/23 05:15:00;;;;;;;5.25;3.35;;;;;;;17.73;40.89;101426.69;5008024;28;20353;-80
2023/05/23 05:17:29;;;;;;;5.97;3.40;;;;;;;17.72;40.81;101437.94;5014010;28;20037;-80
2023/05/23 05:20:07;;;;;;;5.45;3.35;;;;;;;17.71;40.57;101438.97;5011872;28;20413;-80
2023/05/23 05:22:39;;;;;;;6.22;3.67;;;;;;;17.73;40.58;101439.69;5017075;28;20513;-80
2023/05/23 05:25:11;;;;;;;5.85;3.70;;;;;;;17.71;40.69;101442.63;5024438;28;20053;-79
2023/05/23 05:27:39;;;;;;;5.60;3.88;;;;;;;17.69;40.72;101441.03;5014311;28;20037;-80
2023/05/23 05:30:11;;;;;;;7.22;3.65;;;;;;;17.69;40.99;101446.56;5017150;28;20042;-79
2023/05/23 05:32:50;;;;;;;5.75;3.47;;;;;;;17.68;40.75;101444.84;5012100;28;20061;-79
2023/05/23 05:35:18;;;;;;;6.75;4.10;;;;;;;17.67;41.03;101449.50;5010280;28;20064;-80
2023/05/23 05:37:47;;;;;;;6.07;3.55;;;;;;;17.67;40.91;101460.56;5022571;28;20049;-79
2023/05/23 05:40:16;;;;;;;7.35;3.92;;;;;;;17.68;40.88;101459.56;5009312;28;20050;-80
2023/05/23 05:42:44;;;;;;;6.57;3.90;;;;;;;17.67;40.55;101459.72;5009059;28;20042;-79
2023/05/23 05:45:12;;;;;;;7.25;3.72;;;;;;;17.65;40.71;101457.09;5012048;28;20276;-78
2023/05/23 05:47:42;;;;;;;6.13;3.65;;;;;;;17.66;40.82;101457.97;5020908;28;20405;-79
2023/05/23 05:50:11;;;;;;;5.88;3.63;;;;;;;17.67;40.70;101465.25;5015380;28;20249;-79
2023/05/23 05:52:39;;;;;;;6.47;4.15;;;;;;;17.66;41.23;101458.84;5015705;28;20049;-80
2023/05/23 05:55:10;;;;;;;7.38;4.20;;;;;;;17.64;41.42;101460.94;5005985;28;20120;-79
2023/05/23 05:57:41;;;;;;;6.28;4.30;;;;;;;17.63;41.10;101464.72;5011209;28;20041;-79
2023/05/23 06:00:13;;;;;;;7.68;4.13;;;;;;;17.64;41.40;101472.00;5018634;28;20136;-79
2023/05/23 06:02:51;;;;;;;6.78;4.15;;;;;;;17.62;41.09;101471.28;5024887;28;20053;-79
2023/05/23 06:05:32;;;;;;;7.03;3.90;;;;;;;17.60;41.18;101473.34;5013237;28;20508;-79
2023/05/23 06:08:00;;;;;;;7.22;4.35;;;;;;;17.62;41.04;101473.19;5010812;28;20044;-78
2023/05/23 06:10:28;;;;;;;6.50;4.05;;;;;;;17.62;40.94;101478.72;5014297;28;20054;-79
2023/05/23 06:12:58;;;;;;;7.65;4.30;;;;;;;17.63;41.12;101484.09;5013435;28;20266;-79
2023/05/23 06:15:26;;;;;;;7.82;4.10;;;;;;;17.62;40.98;101481.50;5016892;28;20114;-79
2023/05/23 06:17:54;;;;;;;5.72;4.03;;;;;;;17.61;41.34;101479.75;5017805;28;20053;-77
2023/05/23 06:20:23;;;;;;;7.07;3.63;;;;;;;17.60;41.07;101484.44;5025047;28;20054;-77
2023/05/23 06:22:53;;;;;;;5.60;3.92;;;;;;;17.59;41.29;101485.44;5032198;28;20042;-77
2023/05/23 06:25:20;;;;;;;7.10;4.20;;;;;;;17.58;41.04;101475.41;5028586;28;20052;-78
2023/05/23 06:27:49;;;;;;;6.85;4.25;;;;;;;17.58;40.65;101486.47;5032976;28;20116;-77
2023/05/23 06:30:18;;;;;;;5.75;4.10;;;;;;;17.59;40.70;101487.34;5031123;28;20057;-79
2023/05/23 06:32:46;;;;;;;6.90;4.20;;;;;;;17.56;40.71;101480.28;5016534;28;20061;-78
2023/05/23 06:35:14;;;;;;;6.03;4.05;;;;;;;17.55;40.66;101480.44;5017835;28;20501;-77
2023/05/23 06:37:44;;;;;;;6.38;4.13;;;;;;;17.54;40.72;101487.00;5018480;28;20049;-78
2023/05/23 06:40:13;;;;;;;6.50;4.57;;;;;;;17.55;40.81;101486.84;5015489;28;20416;-78
2023/05/23 06:42:41;;;;;;;6.57;4.00;;;;;;;17.53;40.76;101483.34;5017159;28;20092;-78
2023/05/23 06:45:19;;;;;;;5.78;3.55;;;;;;;17.54;40.97;101495.28;5024988;28;20037;-78
2023/05/23 06:47:48;;;;;;;6.45;3.80;;;;;;;17.51;40.99;101493.72;5013264;28;20045;-78
2023/05/23 06:50:18;;;;;;;7.00;3.70;;;;;;;17.53;40.95;101496.31;5015591;28;20054;-78
2023/05/23 06:52:48;;;;;;;5.72;3.45;;;;;;;17.47;40.50;101495.09;5025340;28;20052;-78
2023/05/23 06:55:18;;;;;;;5.70;3.53;;;;;;;17.52;40.36;101500.13;5014511;28;20533;-78
2023/05/23 06:57:50;;;;;;;5.90;3.97;;;;;;;17.51;40.69;101503.91;5022988;28;20276;-77
2023/05/23 07:00:22;;;;;;;5.50;3.53;;;;;;;17.53;40.73;101515.69;5032362;28;20045;-78
2023/05/23 07:03:02;;;;;;;5.32;3.83;;;;;;;17.51;40.48;101514.97;5012394;28;20497;-78
2023/05/23 07:05:32;;;;;;;6.13;3.90;;;;;;;17.52;40.85;101527.78;5016386;28;20057;-77
2023/05/23 07:08:00;;;;;;;6.28;3.65;;;;;;;17.52;40.67;101519.50;5019681;28;20144;-78
2023/05/23 07:10:28;;;;;;;7.05;3.55;;;;;;;17.53;40.85;101521.22;5013999;28;20116;-78
2023/05/23 07:13:03;;;;;;;5.68;3.65;;;;;;;17.52;40.55;101523.13;5021908;28;20132;-78
2023/05/23 07:15:33;;;;;;;6.03;4.28;;;;;;;17.56;40.70;101531.97;5003953;28;20049;-78
2023/05/23 07:18:11;;;;;;;5.93;3.75;;;;;;;17.53;40.96;101521.22;5009376;28;20145;-79
2023/05/23 07:20:39;;;;;;;5.63;3.80;;;;;;;17.54;40.59;101532.13;5015744;28;20046;-79
2023/05/23 07:23:14;;;;;;;6.13;3.85;;;;;;;17.54;40.38;101526.59;5011523;28;20044;-78
2023/05/23 07:25:43;;;;;;;6.10;4.05;;;;;;;17.55;40.77;101525.56;5019299;28;20052;-79
2023/05/23 07:28:31;;;;;;;6.22;3.97;;;;;;;17.56;40.51;101534.75;5018770;28;20276;-79
2023/05/23 07:31:00;;;;;;;6.00;3.90;;;;;;;17.60;40.76;101536.16;5025893;28;20088;-79
2023/05/23 07:33:32;;;;;;;5.40;3.58;;;;;;;17.59;41.04;101540.81;5023568;28;20483;-79
2023/05/23 07:36:03;;;;;;;6.40;3.85;;;;;;;17.60;40.80;101534.25;5022966;28;20528;-79
2023/05/23 07:38:31;;;;;;;6.45;3.95;;;;;;;17.63;40.53;101546.91;5011613;28;20056;-77
2023/05/23 07:40:59;;;;;;;6.18;3.85;;;;;;;17.65;40.31;101539.28;5009505;28;20054;-78
2023/05/23 07:43:40;;;;;;;6.00;3.88;;;;;;;17.66;40.41;101536.34;5016704;28;20510;-79
2023/05/23 07:46:23;;;;;;;7.07;4.13;;;;;;;17.72;40.21;101545.91;4999577;22;20760;-86
2023/05/23 07:49:01;;;;;;;7.68;3.80;;;;;;;17.71;40.79;101546.94;4986491;28;20046;-86
2023/05/23 07:51:35;;;;;;;6.03;3.80;;;;;;;17.70;40.63;101542.44;5006116;28;20053;-84
2023/05/23 07:54:10;;;;;;;5.83;4.10;;;;;;;17.69;40.69;101552.63;5011578;28;20046;-85
2023/05/23 08:03:24;;;;;;;6.15;3.53;;;;;;;17.72;40.24;101554.22;5013334;28;20125;-84
2023/05/23 08:06:03;;;;;;;6.55;3.90;;;;;;;17.69;40.26;101560.06;4963449;28;20046;-87
2023/05/23 08:08:31;;;;;;;5.50;3.67;;;;;;;17.70;40.49;101556.28;5002815;28;20045;-86
2023/05/23 08:11:00;;;;;;;6.65;3.88;;;;;;;17.69;40.48;101562.84;5005322;28;20038;-85
2023/05/23 08:13:37;;;;;;;5.80;4.20;;;;;;;17.67;40.36;101564.91;4991592;28;20070;-86
2023/05/23 08:16:32;;;;;;;7.97;4.30;;;;;;;17.64;40.41;101571.66;4993300;28;20055;-86
2023/05/23 08:19:01;;;;;;;7.50;4.30;;;;;;;17.65;39.94;101580.78;4992427;28;20042;-85
2023/05/23 08:21:30;;;;;;;7.50;3.58;;;;;;;17.63;39.83;101588.41;4995524;28;20101;-85
2023/05/23 08:24:00;;;;;;;7.10;3.88;;;;;;;17.61;40.29;101587.72;5011649;28;20046;-85
2023/05/23 08:26:33;;;;;;;6.60;3.80;;;;;;;17.59;39.92;101587.00;4995325;28;20089;-85
2023/05/23 08:29:04;;;;;;;6.70;3.72;;;;;;;17.57;40.26;101594.59;5009334;28;20042;-85
2023/05/23 08:31:32;;;;;;;6.93;4.43;;;;;;;17.56;39.95;101606.72;4996109;28;20105;-83
2023/05/23 08:34:07;;;;;;;7.47;4.87;;;;;;;17.54;40.14;101604.09;5009228;28;20046;-84
2023/05/23 08:36:38;;;;;;;8.00;5.35;;;;;;;17.51;39.85;101603.53;4984846;28;20424;-83
2023/05/23 08:39:10;;;;;;;8.63;5.22;;;;;;;17.46;39.82;101606.81;5006018;28;20046;-83
2023/05/23 08:41:49;;;;;;;7.78;5.30;;;;;;;17.46;39.72;101608.72;5007606;28;20138;-84
2023/05/23 08:44:18;;;;;;;7.22;5.07;;;;;;;17.44;40.01;101602.47;4993603;28;20053;-84
2023/05/23 08:46:53;;;;;;;8.52;5.53;;;;;;;17.42;39.88;101610.91;4978999;28;20050;-83
2023/05/23 08:49:45;;;;;;;8.90;5.72;;;;;;;17.37;39.99;101621.59;5008311;28;20054;-83
2023/05/23 08:55:54;;;;;;;9.32;6.50;;;;;;;17.31;39.73;101625.03;4926299;28;20046;-84
2023/05/23 08:58:28;;;;;;;11.13;7.05;;;;;;;17.30;39.94;101632.44;5009314;28;20127;-84
2023/05/23 09:00:59;;;;;;;9.45;7.30;;;;;;;17.29;40.05;101635.38;4983853;28;20042;-84
2023/05/23 09:03:33;;;;;;;11.50;7.15;;;;;;;17.26;40.18;101635.69;5004847;28;20465;-84
2023/05/23 09:06:17;;;;;;;9.82;6.82;;;;;;;17.26;40.33;101642.09;5013310;28;20088;-83
2023/05/23 09:08:45;;;;;;;10.10;7.25;;;;;;;17.24;40.29;101641.38;5010290;28;20081;-83
2023/05/23 09:11:15;;;;;;;10.02;7.00;;;;;;;17.24;40.43;101641.38;4989998;28;20383;-84
2023/05/23 09:13:45;;;;;;;12.40;7.47;;;;;;;17.25;40.15;101647.78;5009242;28;20042;-83
2023/05/23 09:16:17;;;;;;;10.43;7.22;;;;;;;17.25;40.28;101643.09;5001351;28;20193;-83
2023/05/23 09:18:56;;;;;;;10.88;8.13;;;;;;;17.25;40.36;101645.88;5003358;28;20042;-83
2023/05/23 09:21:27;;;;;;;11.85;7.72;;;;;;;17.29;39.97;101646.44;5007893;28;20540;-83
2023/05/23 09:24:06;;;;;;;9.25;5.93;;;;;;;17.28;40.15;101661.28;5006169;28;20150;-84
2023/05/23 09:26:34;;;;;;;8.57;6.43;;;;;;;17.30;40.16;101656.47;5001078;28;20061;-84
2023/05/23 09:29:06;;;;;;;9.52;5.57;;;;;;;17.31;40.25;101658.22;5001116;28;20042;-83
2023/05/23 09:31:35;;;;;;;10.95;6.15;;;;;;;17.27;40.00;101656.78;5008273;28;20182;-84
2023/05/23 09:34:04;;;;;;;9.20;6.10;;;;;;;17.28;39.92;101658.53;5003286;28;20294;-83
2023/05/23 09:36:35;;;;;;;9.93;6.20;;;;;;;17.27;40.03;101665.97;4998447;28;20070;-83
2023/05/23 09:39:05;;;;;;;7.25;5.38;;;;;;;17.26;39.96;101669.75;5002200;28;20127;-83
2023/05/23 09:41:34;;;;;;;7.20;4.32;;;;;;;17.25;39.85;101669.91;5016553;28;20057;-83
2023/05/23 09:44:06;;;;;;;7.60;4.30;;;;;;;17.24;39.56;101670.94;4998163;28;20291;-83
2023/05/23 09:46:36;;;;;;;6.80;3.25;;;;;;;17.19;39.44;101673.31;5020370;28;20053;-83
2023/05/23 09:49:18;;;;;;;6.82;3.65;;;;;;;17.19;39.08;101678.84;5022155;28;20091;-83
2023/05/23 09:51:59;;;;;;;6.80;4.50;;;;;;;17.16;39.10;101670.84;5007621;28;20105;-83
2023/05/23 09:54:27;;;;;;;9.38;5.85;;;;;;;17.12;39.37;101686.91;5005218;28;20082;-84
2023/05/23 09:56:59;;;;;;;9.40;6.05;;;;;;;17.08;39.00;101679.06;5010209;28;20457;-84
2023/05/23 09:59:31;;;;;;;7.88;4.95;;;;;;;17.05;38.88;101688.56;5001701;28;20042;-83
2023/05/23 10:02:02;;;;;;;7.80;4.85;;;;;;;17.05;39.28;101688.56;5004859;28;20381;-82
2023/05/23 10:04:34;;;;;;;8.98;4.97;;;;;;;17.03;38.85;101690.63;5018815;28;20105;-83
2023/05/23 10:07:14;;;;;;;6.93;4.28;;;;;;;17.01;39.05;101685.22;5014465;28;20084;-83
2023/05/23 10:09:47;;;;;;;7.05;4.75;;;;;;;16.97;39.10;101688.47;4995788;28;20509;-83
2023/05/23 10:13:01;;;;;;;10.82;6.05;;;;;;;16.90;38.66;101693.72;5009354;28;20049;-83
2023/05/23 10:15:35;;;;;;;11.13;7.60;;;;;;;16.89;39.32;101691.13;4979017;28;20085;-84
2023/05/23 10:18:08;;;;;;;8.73;6.03;;;;;;;16.88;38.94;101678.31;5011034;28;20042;-84
2023/05/23 10:20:39;;;;;;;6.95;4.82;;;;;;;16.85;39.01;101689.69;5002346;28;20052;-83
2023/05/23 10:23:10;;;;;;;9.02;5.40;;;;;;;16.85;39.06;101689.69;5002115;28;20054;-83
2023/05/23 10:25:40;;;;;;;8.88;4.80;;;;;;;16.83;38.89;101686.19;4995409;28;20061;-83
2023/05/23 10:28:09;;;;;;;7.43;4.03;;;;;;;16.84;39.35;101699.00;5005605;28;20065;-83
2023/05/23 10:30:40;;;;;;;9.27;4.30;;;;;;;16.84;38.97;101705.38;5001863;28;20053;-83
2023/05/23 10:33:10;;;;;;;7.32;5.03;;;;;;;16.85;39.16;101711.78;4996116;28;20053;-85
2023/05/23 10:35:47;;;;;;;9.75;5.78;;;;;;;16.87;38.24;101707.00;5003217;28;20057;-83
2023/05/23 10:38:36;;;;;;;10.13;7.38;;;;;;;16.86;38.82;101713.53;4980439;28;20053;-83
2023/05/23 10:41:12;;;;;;;9.00;6.75;;;;;;;16.83;38.58;101720.22;4999465;28;20085;-84
2023/05/23 10:43:47;;;;;;;9.82;6.15;;;;;;;16.84;38.81;101715.56;5004606;28;20134;-83
2023/05/23 10:46:15;;;;;;;7.53;4.78;;;;;;;16.79;38.72;101721.59;4990417;28;20053;-82
2023/05/23 10:48:44;;;;;;;7.07;4.40;;;;;;;16.80;38.68;101714.16;4988064;28;20053;-83
2023/05/23 10:51:16;;;;;;;6.25;3.50;;;;;;;16.80;38.24;101717.81;5002611;28;20125;-83
2023/05/23 10:53:46;;;;;;;7.30;3.58;;;;;;;16.82;38.32;101721.28;5006266;28;20556;-85
2023/05/23 10:56:22;;;;;;;5.43;3.00;;;;;;;16.83;38.32;101720.22;4997777;28;20088;-83
2023/05/23 10:58:53;;;;;;;5.47;3.30;;;;;;;16.85;38.38;101720.97;5009347;28;20080;-83
2023/05/23 11:01:22;;;;;;;4.82;3.15;;;;;;;16.87;38.31;101715.28;5004126;28;20073;-82
2023/05/23 11:03:52;;;;;;;4.38;2.92;;;;;;;16.91;38.28;101719.47;5007047;28;20065;-84
2023/05/23 11:06:31;;;;;;;6.97;3.17;;;;;;;16.96;37.78;101712.47;4994566;28;20057;-83
2023/05/23 11:09:09;;;;;;;5.82;3.75;;;;;;;17.05;37.96;101715.34;5000790;28;20069;-84
2023/05/23 11:12:03;;;;;;;5.70;4.00;;;;;;;17.07;37.98;101711.41;5012687;28;20080;-82
2023/05/23 11:14:53;;;;;;;8.02;5.47;;;;;;;17.19;37.90;101717.56;4985487;28;20057;-82
2023/05/23 11:17:33;;;;;;;8.27;6.15;;;;;;;17.27;37.38;101714.88;5011283;28;20050;-83
2023/05/23 11:20:05;;;;;;;8.07;5.60;;;;;;;17.33;37.68;101714.25;5002267;28;20041;-84
2023/05/23 11:22:34;;;;;;;;;;;;;;;17.08;38.39;101713.13;5010400;28;20100;-83
2023/05/23 11:25:09;;;;;;;7.55;5.60;;;;;;;17.41;37.28;101711.56;5010480;28;19928;-83
2023/05/23 11:27:40;;;;;;;7.55;5.68;;;;;;;17.45;37.78;101710.22;5014554;28;20296;-84
2023/05/23 11:30:12;;;;;;;7.88;5.50;;;;;;;17.52;37.30;101713.22;5001347;28;20049;-84
2023/05/23 11:32:41;;;;;;;6.47;4.35;;;;;;;17.54;37.47;101719.47;5020694;28;20042;-83
2023/05/23 11:35:11;;;;;;;7.43;4.35;;;;;;;17.58;36.82;101721.75;5000450;28;20046;-83
2023/05/23 11:37:39;;;;;;;7.68;4.20;;;;;;;17.62;37.09;101717.66;5000484;28;20042;-84
2023/05/23 11:40:29;;;;;;;5.53;3.83;;;;;;;17.63;36.69;101719.41;5008866;28;20115;-86
2023/05/23 11:42:58;;;;;;;7.32;4.32;;;;;;;17.66;36.65;101737.56;4994369;28;20050;-85
2023/05/23 11:45:28;;;;;;;6.97;4.15;;;;;;;17.69;36.77;101731.72;5002219;28;20081;-85
2023/05/23 11:47:56;;;;;;;7.18;3.42;;;;;;;17.68;36.29;101728.06;5013321;28;20049;-85
2023/05/23 11:50:25;;;;;;;6.20;3.17;;;;;;;17.68;36.46;101730.84;5003297;28;20421;-85
2023/05/23 11:52:55;;;;;;;5.80;2.83;;;;;;;17.71;36.03;101736.06;5007070;28;20178;-85
2023/05/23 11:55:23;;;;;;;4.80;2.92;;;;;;;17.69;36.22;101734.50;4994483;28;20185;-85
2023/05/23 11:57:56;;;;;;;6.25;3.42;;;;;;;17.73;35.36;101739.53;5010926;28;20046;-85
2023/05/23 12:00:24;;;;;;;;;;;;;;;17.40;36.63;101732.81;4995127;28;20060;-82
2023/05/23 12:02:52;;;;;;;5.70;3.30;;;;;;;17.65;36.10;101736.69;4995259;28;19961;-84
2023/05/23 12:05:21;;;;;;;7.25;3.40;;;;;;;17.69;36.06;101734.50;4997225;28;20113;-83
2023/05/23 12:07:49;;;;;;;6.32;3.45;;;;;;;17.72;36.03;101737.81;4994322;28;20057;-83
2023/05/23 12:10:21;;;;;;;5.68;3.42;;;;;;;17.72;36.03;101740.59;4993789;28;20129;-84
2023/05/23 12:12:53;;;;;;;7.18;3.38;;;;;;;17.76;35.54;101738.38;5005672;28;20046;-84
2023/05/23 12:15:27;;;;;;;5.78;3.55;;;;;;;17.75;35.17;101742.19;5014507;28;20078;-82
2023/05/23 12:17:56;;;;;;;5.28;3.42;;;;;;;17.75;35.97;101742.19;5004705;28;20050;-87
2023/05/23 12:20:26;;;;;;;6.05;3.75;;;;;;;17.79;35.87;101743.59;4995066;28;20050;-85
2023/05/23 12:22:57;;;;;;;7.50;3.50;;;;;;;17.79;35.65;101749.16;5013664;28;20046;-85
2023/05/23 12:25:26;;;;;;;6.30;3.27;;;;;;;17.75;35.78;101745.81;4980638;28;20092;-86
2023/05/23 12:27:56;;;;;;;5.38;3.47;;;;;;;17.80;35.38;101750.03;4993923;28;20535;-87
2023/05/23 12:30:25;;;;;;;6.05;3.25;;;;;;;17.78;35.59;101741.88;5011138;28;20041;-87
2023/05/23 12:32:53;;;;;;;6.45;3.65;;;;;;;17.77;35.33;101743.75;4990376;28;20062;-83
2023/05/23 12:35:21;;;;;;;7.75;3.60;;;;;;;17.78;35.35;101744.63;5006575;28;20065;-83
2023/05/23 12:37:49;;;;;;;6.32;3.45;;;;;;;17.80;35.09;101738.94;5009514;28;20043;-83
2023/05/23 12:40:18;;;;;;;6.18;3.40;;;;;;;17.81;35.40;101736.03;5003004;28;20081;-84
2023/05/23 12:42:53;;;;;;;6.47;2.83;;;;;;;17.85;34.69;101731.00;5015177;28;20050;-83
2023/05/23 12:45:35;;;;;;;5.25;3.15;;;;;;;17.89;34.57;101727.78;5008379;28;20058;-82
2023/05/23 12:48:07;;;;;;;6.03;3.15;;;;;;;17.92;35.35;101726.56;5014268;28;20034;-83
2023/05/23 12:50:35;;;;;;;6.47;3.40;;;;;;;17.96;35.22;101725.22;5002333;28;20044;-83
2023/05/23 12:53:03;;;;;;;6.47;4.18;;;;;;;17.98;34.89;101735.09;4987262;28;20502;-83
2023/05/23 12:55:31;;;;;;;7.45;5.00;;;;;;;18.01;34.99;101732.00;5004136;28;20052;-85